Aeroporto :
LOGIN :

Iscrizione | Disclaimer

   EN    FR    IT 

 










Sommario :    VFR   VFR Marginale   IFR   IFR Intensivo   IFR Molto Intensivo
Visibilità : 
Base nubi : 
>= 8 km
>= 3000ft
5 / 8 km
1000 / 3000 ft
1500m / 5 km
500 / 1000 ft
800 / 1500m
200 / 500 ft
< 800m
< 200 ft
Simboli :   Temporali  Nebbia  Neve Forte  Precipitazioni Forti  Vento > 20 kt
SIGMETs :   Varie  Temporali  Ghiacco  Turbolenza  Onda orograficha  Ceneri Vulcaniche







- Altitudine del aeroporto : 1273 ft
- Codice IATA : LJU


LJLJ - Ljubljana

ULTIMO METAR :
  • 240000Z 26001KT 4000 BR FEW002 BKN015 10/10 Q1012 NOSIG

METARs OBSOLETI :
  • 232330Z VRB02KT 4000 BR FEW004 BKN015 10/10 Q1012 NOSIG
  • 232300Z 13002KT 4000 -RA BR FEW002 BKN013 10/10 Q1012 NOSIG
  • 232230Z 22001KT 6000 -RA FEW002 BKN015 10/10 Q1012 NOSIG
  • 232200Z 00000KT 7000 -RA FEW002 OVC013 10/10 Q1012 NOSIG
  • 232130Z VRB01KT 4000 -RA BR FEW004 OVC015 10/10 Q1012 NOSIG

TAF TAF LJLJ
Valido dal 24 a 00 ore il 25 a 00 ore UTC


232300Z 2400/2424 VRB02KT 7000 -RA FEW010 BKN030 OVC050
TEMPO 2400/2406 3500 RA BR OVC020
BECMG 2406/2409 9999 NSW SCT030 BKN045
TEMPO 2409/2418 26005KT -SHRA SCT030TCU BKN033
Nessun NOTAM noto per questo aeroporto.



MetMap, La meteo Aeronautica in un colpo d'occhio ! - Copyright ORBIFLY Dicembre 2007 - Disclaimer

ORBIFLY MET'MAP TEAM :

Programmazione e sviluppo : Alexandra Zaïnal
Concezione e sviluppo : Baudouin d'Aumeries
Co-Programmazione e sviluppo : Marc-Olivier Méhu
Supporto tecnico e logistico : Manuel Goepfert
Aiuto per la traduzione : Arnaldo La Scala

Contatto : metmap@orbifly.com




FONTI E CREDITI :

   NOAA